Alamosa, CO (81101)

8:11 AM MDT on July 30, 2016 (GMT -0600)
Alamosa | | Change Station

Elev 7543 ft 37.46 °N, 105.86 °W | Updated 11 minutes ago

Clear
Clear
66.6 °F
Feels Like 66.6 °F
N
0.0
Wind Variable Wind from NW

Today
High -- | Low -- °F
--% Chance of Precip.
Yesterday
High -- | Low -- °F
Precip. -- in
Pressure 30.00 in
Visibility 10.0 miles
Clouds Clear
Dew Point 44 °F
Humidity 44%
Rainfall 0.00 in
Snow Depth Not available.
6:06 AM 8:12 PM
Waning Crescent, 13% visible
METAR KALS 301352Z AUTO 02004KT 10SM CLR 17/07 A3031 RMK AO2 SLP159 T01720067 $
Pressure 30.00 in
Visibility 10.0 miles
Clouds Clear
Dew Point 44 °F
Humidity 44%
Rainfall 0.00 in
Snow Depth Not available.
6:06 AM 8:12 PM
Waning Crescent, 13% visible
METAR KALS 301352Z AUTO 02004KT 10SM CLR 17/07 A3031 RMK AO2 SLP159 T01720067 $

10-Day Weather Forecast

Almanac

Astronomy

Jul. 30, 2016 Rise Set
Actual Time
Civil Twilight
Nautical Twilight
Astronomical Twilight
Moon
Length of Visible Light
Length of Day
Tomorrow will be .
, % of the Moon is Illuminated

Today's Extremes

State Highs State Lows

Community

WunderPhotos

Upload Photos

1,928,564 photos uploaded!

WunderBlog® & News

Nearby

Air Quality

  Air Quality AQ Index Pollutant
Not available.

Snow Depth

Station Depth Elevation

Earthquake Activity

City Distance Mag. Time & Date
Minimum magnitude displayed is 2.5.

Coastal Water Temperatures

Place Temperature

Stations

Nearby Weather Stations

Station Location Temp. Windchill Dew Point Humidity Wind Precip. Elev Updated Type
                   

Watches & Warnings

There are currently no watches in effect.